sensor_id;sensor_type;location;lat;lon;timestamp;temperature;humidity
14257;DHT22;7212;53.254;6.456;2022-07-18T00:01:37;21.50;99.90
14257;DHT22;7212;53.254;6.456;2022-07-18T00:04:03;21.50;99.90
14257;DHT22;7212;53.254;6.456;2022-07-18T00:06:28;21.40;99.90
14257;DHT22;7212;53.254;6.456;2022-07-18T00:08:54;21.40;99.90
14257;DHT22;7212;53.254;6.456;2022-07-18T00:11:21;21.40;99.90
14257;DHT22;7212;53.254;6.456;2022-07-18T00:13:46;21.30;99.90
14257;DHT22;7212;53.254;6.456;2022-07-18T00:16:12;21.30;99.90
14257;DHT22;7212;53.254;6.456;2022-07-18T00:18:38;21.20;99.90
14257;DHT22;7212;53.254;6.456;2022-07-18T00:21:04;21.20;99.90
14257;DHT22;7212;53.254;6.456;2022-07-18T00:23:30;21.20;99.90
14257;DHT22;7212;53.254;6.456;2022-07-18T00:25:56;21.10;99.90
14257;DHT22;7212;53.254;6.456;2022-07-18T00:28:21;21.00;99.90
14257;DHT22;7212;53.254;6.456;2022-07-18T00:30:47;21.00;99.90
14257;DHT22;7212;53.254;6.456;2022-07-18T00:33:12;20.90;99.90
14257;DHT22;7212;53.254;6.456;2022-07-18T00:35:38;20.90;99.90
14257;DHT22;7212;53.254;6.456;2022-07-18T00:38:04;20.90;99.90
14257;DHT22;7212;53.254;6.456;2022-07-18T00:40:30;20.80;99.90
14257;DHT22;7212;53.254;6.456;2022-07-18T00:42:56;20.80;99.90
14257;DHT22;7212;53.254;6.456;2022-07-18T00:45:22;20.70;99.90
14257;DHT22;7212;53.254;6.456;2022-07-18T00:47:47;20.70;99.90
14257;DHT22;7212;53.254;6.456;2022-07-18T00:50:16;20.60;99.90
14257;DHT22;7212;53.254;6.456;2022-07-18T00:52:42;20.60;99.90
14257;DHT22;7212;53.254;6.456;2022-07-18T00:55:08;20.60;99.90
14257;DHT22;7212;53.254;6.456;2022-07-18T00:57:34;20.60;99.90
14257;DHT22;7212;53.254;6.456;2022-07-18T01:00:00;20.50;99.90
14257;DHT22;7212;53.254;6.456;2022-07-18T01:02:45;20.50;99.90
14257;DHT22;7212;53.254;6.456;2022-07-18T01:05:11;20.40;99.90
14257;DHT22;7212;53.254;6.456;2022-07-18T01:07:37;20.40;99.90
14257;DHT22;7212;53.254;6.456;2022-07-18T01:10:04;20.40;99.90
14257;DHT22;7212;53.254;6.456;2022-07-18T01:12:30;20.40;99.90
14257;DHT22;7212;53.254;6.456;2022-07-18T01:14:57;20.30;99.90
14257;DHT22;7212;53.254;6.456;2022-07-18T01:17:23;20.30;99.90
14257;DHT22;7212;53.254;6.456;2022-07-18T01:19:49;20.30;99.90
14257;DHT22;7212;53.254;6.456;2022-07-18T01:22:17;20.20;99.90
14257;DHT22;7212;53.254;6.456;2022-07-18T01:24:43;20.20;99.90
14257;DHT22;7212;53.254;6.456;2022-07-18T01:27:14;20.20;99.90
14257;DHT22;7212;53.254;6.456;2022-07-18T01:29:40;20.10;99.90
14257;DHT22;7212;53.254;6.456;2022-07-18T01:32:09;20.10;99.90
14257;DHT22;7212;53.254;6.456;2022-07-18T01:34:35;20.10;99.90
14257;DHT22;7212;53.254;6.456;2022-07-18T01:37:02;20.00;99.90
14257;DHT22;7212;53.254;6.456;2022-07-18T01:39:28;20.10;99.90
14257;DHT22;7212;53.254;6.456;2022-07-18T01:42:02;20.00;99.90
14257;DHT22;7212;53.254;6.456;2022-07-18T01:44:28;20.00;99.90
14257;DHT22;7212;53.254;6.456;2022-07-18T01:46:54;20.00;99.90
14257;DHT22;7212;53.254;6.456;2022-07-18T01:49:20;19.90;99.90
14257;DHT22;7212;53.254;6.456;2022-07-18T01:51:46;19.90;99.90
14257;DHT22;7212;53.254;6.456;2022-07-18T01:54:12;19.90;99.90
14257;DHT22;7212;53.254;6.456;2022-07-18T01:56:38;19.80;99.90
14257;DHT22;7212;53.254;6.456;2022-07-18T01:59:04;19.80;99.90
14257;DHT22;7212;53.254;6.456;2022-07-18T02:01:30;19.80;99.90
14257;DHT22;7212;53.254;6.456;2022-07-18T02:03:55;19.80;99.90
14257;DHT22;7212;53.254;6.456;2022-07-18T02:06:21;19.70;99.90
14257;DHT22;7212;53.254;6.456;2022-07-18T02:08:47;19.70;99.90
14257;DHT22;7212;53.254;6.456;2022-07-18T02:11:12;19.70;99.90
14257;DHT22;7212;53.254;6.456;2022-07-18T02:13:38;19.70;99.90
14257;DHT22;7212;53.254;6.456;2022-07-18T02:16:04;19.60;99.90
14257;DHT22;7212;53.254;6.456;2022-07-18T02:18:30;19.60;99.90
14257;DHT22;7212;53.254;6.456;2022-07-18T02:20:59;19.60;99.90
14257;DHT22;7212;53.254;6.456;2022-07-18T02:23:24;19.50;99.90
14257;DHT22;7212;53.254;6.456;2022-07-18T02:25:50;19.50;99.90
14257;DHT22;7212;53.254;6.456;2022-07-18T02:28:16;19.50;99.90
14257;DHT22;7212;53.254;6.456;2022-07-18T02:30:41;19.50;99.90
14257;DHT22;7212;53.254;6.456;2022-07-18T02:33:07;19.50;99.90
14257;DHT22;7212;53.254;6.456;2022-07-18T02:35:32;19.50;99.90
14257;DHT22;7212;53.254;6.456;2022-07-18T02:37:58;19.40;99.90
14257;DHT22;7212;53.254;6.456;2022-07-18T02:40:24;19.40;99.90
14257;DHT22;7212;53.254;6.456;2022-07-18T02:42:49;19.40;99.90
14257;DHT22;7212;53.254;6.456;2022-07-18T02:45:15;19.30;99.90
14257;DHT22;7212;53.254;6.456;2022-07-18T02:47:41;19.30;99.90
14257;DHT22;7212;53.254;6.456;2022-07-18T02:50:07;19.30;99.90
14257;DHT22;7212;53.254;6.456;2022-07-18T02:52:33;19.30;99.90
14257;DHT22;7212;53.254;6.456;2022-07-18T02:54:58;19.30;99.90
14257;DHT22;7212;53.254;6.456;2022-07-18T02:57:26;19.30;99.90
14257;DHT22;7212;53.254;6.456;2022-07-18T02:59:52;19.30;99.90
14257;DHT22;7212;53.254;6.456;2022-07-18T03:02:17;19.30;99.90
14257;DHT22;7212;53.254;6.456;2022-07-18T03:04:43;19.20;99.90
14257;DHT22;7212;53.254;6.456;2022-07-18T03:07:08;19.20;99.90
14257;DHT22;7212;53.254;6.456;2022-07-18T03:09:34;19.20;99.90
14257;DHT22;7212;53.254;6.456;2022-07-18T03:12:00;19.20;99.90
14257;DHT22;7212;53.254;6.456;2022-07-18T03:14:26;19.20;99.90
14257;DHT22;7212;53.254;6.456;2022-07-18T03:16:51;19.20;99.90
14257;DHT22;7212;53.254;6.456;2022-07-18T03:19:17;19.10;99.90
14257;DHT22;7212;53.254;6.456;2022-07-18T03:21:43;19.10;99.90
14257;DHT22;7212;53.254;6.456;2022-07-18T03:24:09;19.10;99.90
14257;DHT22;7212;53.254;6.456;2022-07-18T03:26:36;19.10;99.90
14257;DHT22;7212;53.254;6.456;2022-07-18T03:29:02;19.10;99.90
14257;DHT22;7212;53.254;6.456;2022-07-18T03:31:28;19.10;99.90
14257;DHT22;7212;53.254;6.456;2022-07-18T03:33:53;19.10;99.90
14257;DHT22;7212;53.254;6.456;2022-07-18T03:36:19;19.00;99.90
14257;DHT22;7212;53.254;6.456;2022-07-18T03:38:45;19.00;99.90
14257;DHT22;7212;53.254;6.456;2022-07-18T03:41:11;19.00;99.90
14257;DHT22;7212;53.254;6.456;2022-07-18T03:43:38;19.00;99.90
14257;DHT22;7212;53.254;6.456;2022-07-18T03:46:04;19.00;99.90
14257;DHT22;7212;53.254;6.456;2022-07-18T03:48:29;19.00;99.90
14257;DHT22;7212;53.254;6.456;2022-07-18T03:50:55;19.00;99.90
14257;DHT22;7212;53.254;6.456;2022-07-18T03:53:21;18.90;99.90
14257;DHT22;7212;53.254;6.456;2022-07-18T03:55:46;18.90;99.90
14257;DHT22;7212;53.254;6.456;2022-07-18T03:58:12;18.90;99.90
14257;DHT22;7212;53.254;6.456;2022-07-18T04:00:38;18.90;99.90
14257;DHT22;7212;53.254;6.456;2022-07-18T04:03:04;18.90;99.90
14257;DHT22;7212;53.254;6.456;2022-07-18T04:05:29;18.80;99.90
14257;DHT22;7212;53.254;6.456;2022-07-18T04:07:55;18.80;99.90
14257;DHT22;7212;53.254;6.456;2022-07-18T04:10:21;18.80;99.90
14257;DHT22;7212;53.254;6.456;2022-07-18T04:12:51;18.80;99.90
14257;DHT22;7212;53.254;6.456;2022-07-18T04:15:19;18.80;99.90
14257;DHT22;7212;53.254;6.456;2022-07-18T04:17:45;18.80;99.90
14257;DHT22;7212;53.254;6.456;2022-07-18T04:20:12;18.80;99.90
14257;DHT22;7212;53.254;6.456;2022-07-18T04:25:14;18.70;99.90
14257;DHT22;7212;53.254;6.456;2022-07-18T04:27:40;18.70;99.90
14257;DHT22;7212;53.254;6.456;2022-07-18T04:30:06;18.70;99.90
14257;DHT22;7212;53.254;6.456;2022-07-18T04:32:32;18.70;99.90
14257;DHT22;7212;53.254;6.456;2022-07-18T04:34:57;18.70;99.90
14257;DHT22;7212;53.254;6.456;2022-07-18T04:37:23;18.70;99.90
14257;DHT22;7212;53.254;6.456;2022-07-18T04:39:49;18.70;99.90
14257;DHT22;7212;53.254;6.456;2022-07-18T04:42:14;18.70;99.90
14257;DHT22;7212;53.254;6.456;2022-07-18T04:44:40;18.70;99.90
14257;DHT22;7212;53.254;6.456;2022-07-18T04:47:05;18.80;99.90
14257;DHT22;7212;53.254;6.456;2022-07-18T04:49:31;18.80;99.90
14257;DHT22;7212;53.254;6.456;2022-07-18T04:51:57;18.80;99.90
14257;DHT22;7212;53.254;6.456;2022-07-18T04:54:22;18.80;99.90
14257;DHT22;7212;53.254;6.456;2022-07-18T04:56:48;18.80;99.90
14257;DHT22;7212;53.254;6.456;2022-07-18T04:59:14;18.80;99.90
14257;DHT22;7212;53.254;6.456;2022-07-18T05:01:40;18.80;99.90
14257;DHT22;7212;53.254;6.456;2022-07-18T05:04:06;18.80;99.90
14257;DHT22;7212;53.254;6.456;2022-07-18T05:06:31;18.80;99.90
14257;DHT22;7212;53.254;6.456;2022-07-18T05:08:57;18.80;99.90
14257;DHT22;7212;53.254;6.456;2022-07-18T05:11:22;18.90;99.90
14257;DHT22;7212;53.254;6.456;2022-07-18T05:13:48;18.90;99.90
14257;DHT22;7212;53.254;6.456;2022-07-18T05:16:14;18.90;99.90
14257;DHT22;7212;53.254;6.456;2022-07-18T05:18:39;18.90;99.90
14257;DHT22;7212;53.254;6.456;2022-07-18T05:21:05;19.00;99.90
14257;DHT22;7212;53.254;6.456;2022-07-18T05:23:31;18.90;99.90
14257;DHT22;7212;53.254;6.456;2022-07-18T05:25:56;19.00;99.90
14257;DHT22;7212;53.254;6.456;2022-07-18T05:28:22;19.00;99.90
14257;DHT22;7212;53.254;6.456;2022-07-18T05:30:48;19.00;99.90
14257;DHT22;7212;53.254;6.456;2022-07-18T05:33:14;19.00;99.90
14257;DHT22;7212;53.254;6.456;2022-07-18T05:35:40;19.00;99.90
14257;DHT22;7212;53.254;6.456;2022-07-18T05:38:05;19.00;99.90
14257;DHT22;7212;53.254;6.456;2022-07-18T05:40:31;19.10;99.90
14257;DHT22;7212;53.254;6.456;2022-07-18T05:42:57;19.10;99.90
14257;DHT22;7212;53.254;6.456;2022-07-18T05:45:23;19.10;99.90
14257;DHT22;7212;53.254;6.456;2022-07-18T05:47:49;19.10;99.90
14257;DHT22;7212;53.254;6.456;2022-07-18T05:50:15;19.10;99.90
14257;DHT22;7212;53.254;6.456;2022-07-18T05:52:40;19.20;99.90
14257;DHT22;7212;53.254;6.456;2022-07-18T05:55:07;19.20;99.90
14257;DHT22;7212;53.254;6.456;2022-07-18T05:57:34;19.20;99.90
14257;DHT22;7212;53.254;6.456;2022-07-18T06:00:00;19.20;99.90
14257;DHT22;7212;53.254;6.456;2022-07-18T06:02:25;19.30;99.90
14257;DHT22;7212;53.254;6.456;2022-07-18T06:04:51;19.30;99.90
14257;DHT22;7212;53.254;6.456;2022-07-18T06:07:16;19.30;99.90
14257;DHT22;7212;53.254;6.456;2022-07-18T06:09:42;19.40;99.90
14257;DHT22;7212;53.254;6.456;2022-07-18T06:12:08;19.40;99.90
14257;DHT22;7212;53.254;6.456;2022-07-18T06:14:34;19.40;99.90
14257;DHT22;7212;53.254;6.456;2022-07-18T06:16:59;19.40;99.90
14257;DHT22;7212;53.254;6.456;2022-07-18T06:19:25;19.50;99.90
14257;DHT22;7212;53.254;6.456;2022-07-18T06:21:51;19.50;99.90
14257;DHT22;7212;53.254;6.456;2022-07-18T06:24:17;19.60;99.90
14257;DHT22;7212;53.254;6.456;2022-07-18T06:26:42;19.60;99.90
14257;DHT22;7212;53.254;6.456;2022-07-18T06:29:08;19.60;99.90
14257;DHT22;7212;53.254;6.456;2022-07-18T06:31:34;19.70;99.90
14257;DHT22;7212;53.254;6.456;2022-07-18T06:33:59;19.70;99.90
14257;DHT22;7212;53.254;6.456;2022-07-18T06:36:25;19.80;99.90
14257;DHT22;7212;53.254;6.456;2022-07-18T06:38:51;19.80;99.90
14257;DHT22;7212;53.254;6.456;2022-07-18T06:41:18;19.80;99.90
14257;DHT22;7212;53.254;6.456;2022-07-18T06:43:44;19.90;99.90
14257;DHT22;7212;53.254;6.456;2022-07-18T06:46:09;20.00;99.90
14257;DHT22;7212;53.254;6.456;2022-07-18T06:48:35;20.00;99.90
14257;DHT22;7212;53.254;6.456;2022-07-18T06:51:05;20.10;99.90
14257;DHT22;7212;53.254;6.456;2022-07-18T06:53:31;20.20;99.90
14257;DHT22;7212;53.254;6.456;2022-07-18T06:55:58;20.30;99.90
14257;DHT22;7212;53.254;6.456;2022-07-18T06:58:24;20.30;99.90
14257;DHT22;7212;53.254;6.456;2022-07-18T07:00:50;20.40;99.90
14257;DHT22;7212;53.254;6.456;2022-07-18T07:03:16;20.50;99.90
14257;DHT22;7212;53.254;6.456;2022-07-18T07:05:42;20.50;99.90
14257;DHT22;7212;53.254;6.456;2022-07-18T07:08:08;20.60;99.90
14257;DHT22;7212;53.254;6.456;2022-07-18T07:10:33;20.70;99.90
14257;DHT22;7212;53.254;6.456;2022-07-18T07:12:59;20.70;99.90
14257;DHT22;7212;53.254;6.456;2022-07-18T07:15:25;20.80;99.90
14257;DHT22;7212;53.254;6.456;2022-07-18T07:17:51;20.90;99.90
14257;DHT22;7212;53.254;6.456;2022-07-18T07:20:17;20.90;99.90
14257;DHT22;7212;53.254;6.456;2022-07-18T07:22:56;21.00;99.90
14257;DHT22;7212;53.254;6.456;2022-07-18T07:25:24;21.10;99.90
14257;DHT22;7212;53.254;6.456;2022-07-18T07:27:52;21.10;99.90
14257;DHT22;7212;53.254;6.456;2022-07-18T07:30:18;21.20;99.90
14257;DHT22;7212;53.254;6.456;2022-07-18T07:32:44;21.30;99.90
14257;DHT22;7212;53.254;6.456;2022-07-18T07:35:12;21.40;99.90
14257;DHT22;7212;53.254;6.456;2022-07-18T07:37:43;21.40;99.90
14257;DHT22;7212;53.254;6.456;2022-07-18T07:40:10;21.50;99.90
14257;DHT22;7212;53.254;6.456;2022-07-18T07:42:36;21.60;99.90
14257;DHT22;7212;53.254;6.456;2022-07-18T07:45:02;21.70;99.90
14257;DHT22;7212;53.254;6.456;2022-07-18T07:47:27;21.80;99.90
14257;DHT22;7212;53.254;6.456;2022-07-18T07:49:56;21.90;99.90
14257;DHT22;7212;53.254;6.456;2022-07-18T07:52:22;22.00;99.90
14257;DHT22;7212;53.254;6.456;2022-07-18T07:54:50;22.10;99.90
14257;DHT22;7212;53.254;6.456;2022-07-18T07:57:15;22.20;99.90
14257;DHT22;7212;53.254;6.456;2022-07-18T07:59:41;22.30;99.90
14257;DHT22;7212;53.254;6.456;2022-07-18T08:02:07;22.40;99.90
14257;DHT22;7212;53.254;6.456;2022-07-18T08:04:32;22.50;99.90
14257;DHT22;7212;53.254;6.456;2022-07-18T08:06:58;22.50;99.90
14257;DHT22;7212;53.254;6.456;2022-07-18T08:09:24;22.60;99.90
14257;DHT22;7212;53.254;6.456;2022-07-18T08:11:49;22.70;99.90
14257;DHT22;7212;53.254;6.456;2022-07-18T08:14:15;22.70;99.90
14257;DHT22;7212;53.254;6.456;2022-07-18T08:16:41;22.80;99.90
14257;DHT22;7212;53.254;6.456;2022-07-18T08:19:07;22.90;99.90
14257;DHT22;7212;53.254;6.456;2022-07-18T08:21:32;23.00;99.90
14257;DHT22;7212;53.254;6.456;2022-07-18T08:23:58;23.20;99.90
14257;DHT22;7212;53.254;6.456;2022-07-18T08:26:24;23.30;99.90
14257;DHT22;7212;53.254;6.456;2022-07-18T08:28:50;23.50;99.90
14257;DHT22;7212;53.254;6.456;2022-07-18T08:31:15;23.70;99.90
14257;DHT22;7212;53.254;6.456;2022-07-18T08:33:44;23.80;99.90
14257;DHT22;7212;53.254;6.456;2022-07-18T08:36:09;23.90;99.90
14257;DHT22;7212;53.254;6.456;2022-07-18T08:38:35;24.00;99.90
14257;DHT22;7212;53.254;6.456;2022-07-18T08:41:01;24.10;99.90
14257;DHT22;7212;53.254;6.456;2022-07-18T08:43:27;24.20;99.90
14257;DHT22;7212;53.254;6.456;2022-07-18T08:46:03;24.20;99.90
14257;DHT22;7212;53.254;6.456;2022-07-18T08:48:29;24.30;99.90
14257;DHT22;7212;53.254;6.456;2022-07-18T08:50:55;24.40;99.90
14257;DHT22;7212;53.254;6.456;2022-07-18T08:53:21;24.50;99.90
14257;DHT22;7212;53.254;6.456;2022-07-18T08:55:47;24.50;99.90
14257;DHT22;7212;53.254;6.456;2022-07-18T08:58:14;24.60;99.90
14257;DHT22;7212;53.254;6.456;2022-07-18T09:00:46;24.50;99.70
14257;DHT22;7212;53.254;6.456;2022-07-18T09:03:12;24.50;99.90
14257;DHT22;7212;53.254;6.456;2022-07-18T09:05:37;24.50;99.90
14257;DHT22;7212;53.254;6.456;2022-07-18T09:10:53;24.60;99.90
14257;DHT22;7212;53.254;6.456;2022-07-18T09:13:23;24.80;99.90
14257;DHT22;7212;53.254;6.456;2022-07-18T09:16:07;24.80;99.90
14257;DHT22;7212;53.254;6.456;2022-07-18T09:18:35;24.80;99.90
14257;DHT22;7212;53.254;6.456;2022-07-18T09:21:09;24.90;99.90
14257;DHT22;7212;53.254;6.456;2022-07-18T09:23:37;24.90;99.40
14257;DHT22;7212;53.254;6.456;2022-07-18T09:26:04;24.90;99.90
14257;DHT22;7212;53.254;6.456;2022-07-18T09:28:53;25.00;98.80
14257;DHT22;7212;53.254;6.456;2022-07-18T09:31:21;25.10;99.40
14257;DHT22;7212;53.254;6.456;2022-07-18T09:33:54;25.20;99.70
14257;DHT22;7212;53.254;6.456;2022-07-18T09:36:20;25.20;99.10
14257;DHT22;7212;53.254;6.456;2022-07-18T09:38:46;25.30;97.70
14257;DHT22;7212;53.254;6.456;2022-07-18T09:41:12;25.40;98.80
14257;DHT22;7212;53.254;6.456;2022-07-18T09:43:38;25.50;99.50
14257;DHT22;7212;53.254;6.456;2022-07-18T09:46:05;25.60;99.80
14257;DHT22;7212;53.254;6.456;2022-07-18T09:48:31;25.70;99.90
14257;DHT22;7212;53.254;6.456;2022-07-18T09:51:00;25.80;99.50
14257;DHT22;7212;53.254;6.456;2022-07-18T09:55:54;25.90;97.90
14257;DHT22;7212;53.254;6.456;2022-07-18T09:58:28;26.00;98.20
14257;DHT22;7212;53.254;6.456;2022-07-18T10:00:57;26.10;97.10
14257;DHT22;7212;53.254;6.456;2022-07-18T10:03:23;26.10;97.70
14257;DHT22;7212;53.254;6.456;2022-07-18T10:05:51;26.20;97.30
14257;DHT22;7212;53.254;6.456;2022-07-18T10:08:19;26.30;98.00
14257;DHT22;7212;53.254;6.456;2022-07-18T10:10:47;26.30;97.80
14257;DHT22;7212;53.254;6.456;2022-07-18T10:13:14;26.40;97.80
14257;DHT22;7212;53.254;6.456;2022-07-18T10:15:42;26.50;97.30
14257;DHT22;7212;53.254;6.456;2022-07-18T10:18:16;26.70;98.50
14257;DHT22;7212;53.254;6.456;2022-07-18T10:20:47;26.80;99.20
14257;DHT22;7212;53.254;6.456;2022-07-18T10:23:24;26.90;98.00
14257;DHT22;7212;53.254;6.456;2022-07-18T10:34:09;27.20;97.70
14257;DHT22;7212;53.254;6.456;2022-07-18T10:39:40;27.40;96.60
14257;DHT22;7212;53.254;6.456;2022-07-18T10:44:37;27.60;97.80
14257;DHT22;7212;53.254;6.456;2022-07-18T10:47:13;27.70;96.40
14257;DHT22;7212;53.254;6.456;2022-07-18T10:57:28;28.10;95.80
14257;DHT22;7212;53.254;6.456;2022-07-18T11:05:00;28.30;93.60
14257;DHT22;7212;53.254;6.456;2022-07-18T11:07:26;28.40;92.30
14257;DHT22;7212;53.254;6.456;2022-07-18T11:09:51;28.50;91.80
14257;DHT22;7212;53.254;6.456;2022-07-18T11:15:08;28.60;90.40
14257;DHT22;7212;53.254;6.456;2022-07-18T11:22:51;29.10;91.30
14257;DHT22;7212;53.254;6.456;2022-07-18T11:25:18;29.20;90.80
14257;DHT22;7212;53.254;6.456;2022-07-18T11:27:44;29.40;90.40
14257;DHT22;7212;53.254;6.456;2022-07-18T11:30:20;29.50;89.90
14257;DHT22;7212;53.254;6.456;2022-07-18T11:32:46;29.60;89.00
14257;DHT22;7212;53.254;6.456;2022-07-18T11:35:13;29.70;89.80
14257;DHT22;7212;53.254;6.456;2022-07-18T11:37:46;29.90;90.00
14257;DHT22;7212;53.254;6.456;2022-07-18T11:40:13;30.00;89.70
14257;DHT22;7212;53.254;6.456;2022-07-18T11:42:40;30.10;90.50
14257;DHT22;7212;53.254;6.456;2022-07-18T11:45:09;30.20;91.10
14257;DHT22;7212;53.254;6.456;2022-07-18T11:47:51;30.30;89.80
14257;DHT22;7212;53.254;6.456;2022-07-18T11:50:18;30.40;89.20
14257;DHT22;7212;53.254;6.456;2022-07-18T11:52:56;30.50;90.70
14257;DHT22;7212;53.254;6.456;2022-07-18T11:55:32;30.70;85.30
14257;DHT22;7212;53.254;6.456;2022-07-18T11:58:08;30.70;83.30
14257;DHT22;7212;53.254;6.456;2022-07-18T12:00:35;30.90;84.30
14257;DHT22;7212;53.254;6.456;2022-07-18T12:03:15;31.10;82.10
14257;DHT22;7212;53.254;6.456;2022-07-18T12:05:46;31.20;84.60
14257;DHT22;7212;53.254;6.456;2022-07-18T12:11:15;31.50;84.20
14257;DHT22;7212;53.254;6.456;2022-07-18T12:14:03;31.80;84.70
14257;DHT22;7212;53.254;6.456;2022-07-18T12:19:01;32.00;79.40
14257;DHT22;7212;53.254;6.456;2022-07-18T12:21:59;32.00;77.50
14257;DHT22;7212;53.254;6.456;2022-07-18T12:24:37;32.10;78.50
14257;DHT22;7212;53.254;6.456;2022-07-18T12:30:15;32.20;78.10
14257;DHT22;7212;53.254;6.456;2022-07-18T12:32:50;32.30;79.90
14257;DHT22;7212;53.254;6.456;2022-07-18T12:35:24;32.40;78.50
14257;DHT22;7212;53.254;6.456;2022-07-18T12:37:55;32.50;74.80
14257;DHT22;7212;53.254;6.456;2022-07-18T12:40:22;32.50;73.10
14257;DHT22;7212;53.254;6.456;2022-07-18T12:42:48;32.60;74.90
14257;DHT22;7212;53.254;6.456;2022-07-18T12:45:14;32.70;74.40
14257;DHT22;7212;53.254;6.456;2022-07-18T12:47:40;32.70;74.20
14257;DHT22;7212;53.254;6.456;2022-07-18T12:50:07;32.70;72.70
14257;DHT22;7212;53.254;6.456;2022-07-18T12:52:33;32.70;72.90
14257;DHT22;7212;53.254;6.456;2022-07-18T12:54:58;32.70;74.00
14257;DHT22;7212;53.254;6.456;2022-07-18T12:57:25;32.80;73.50
14257;DHT22;7212;53.254;6.456;2022-07-18T12:59:51;32.80;72.40
14257;DHT22;7212;53.254;6.456;2022-07-18T13:02:18;32.90;73.20
14257;DHT22;7212;53.254;6.456;2022-07-18T13:04:44;32.90;74.40
14257;DHT22;7212;53.254;6.456;2022-07-18T13:07:10;32.80;74.50
14257;DHT22;7212;53.254;6.456;2022-07-18T13:09:35;32.70;73.60
14257;DHT22;7212;53.254;6.456;2022-07-18T13:12:01;32.70;74.40
14257;DHT22;7212;53.254;6.456;2022-07-18T13:14:27;32.60;73.40
14257;DHT22;7212;53.254;6.456;2022-07-18T13:16:54;32.70;75.50
14257;DHT22;7212;53.254;6.456;2022-07-18T13:19:20;32.80;74.60
14257;DHT22;7212;53.254;6.456;2022-07-18T13:21:47;33.00;72.70
14257;DHT22;7212;53.254;6.456;2022-07-18T13:24:13;33.20;72.40
14257;DHT22;7212;53.254;6.456;2022-07-18T13:26:40;33.10;70.40
14257;DHT22;7212;53.254;6.456;2022-07-18T13:29:06;33.10;70.40
14257;DHT22;7212;53.254;6.456;2022-07-18T13:31:32;32.90;70.90
14257;DHT22;7212;53.254;6.456;2022-07-18T13:33:58;32.80;70.30
14257;DHT22;7212;53.254;6.456;2022-07-18T13:36:24;32.70;70.50
14257;DHT22;7212;53.254;6.456;2022-07-18T13:38:50;32.70;70.90
14257;DHT22;7212;53.254;6.456;2022-07-18T13:41:15;32.70;70.40
14257;DHT22;7212;53.254;6.456;2022-07-18T13:43:41;32.70;71.50
14257;DHT22;7212;53.254;6.456;2022-07-18T13:46:08;32.60;71.30
14257;DHT22;7212;53.254;6.456;2022-07-18T13:48:34;32.50;72.50
14257;DHT22;7212;53.254;6.456;2022-07-18T13:51:01;32.60;73.40
14257;DHT22;7212;53.254;6.456;2022-07-18T13:53:27;32.70;72.90
14257;DHT22;7212;53.254;6.456;2022-07-18T13:55:53;32.90;73.80
14257;DHT22;7212;53.254;6.456;2022-07-18T13:58:19;33.00;72.90
14257;DHT22;7212;53.254;6.456;2022-07-18T14:00:45;33.00;73.40
14257;DHT22;7212;53.254;6.456;2022-07-18T14:03:11;32.90;71.70
14257;DHT22;7212;53.254;6.456;2022-07-18T14:05:38;32.80;72.60
14257;DHT22;7212;53.254;6.456;2022-07-18T14:08:05;32.70;72.40
14257;DHT22;7212;53.254;6.456;2022-07-18T14:10:30;32.70;73.00
14257;DHT22;7212;53.254;6.456;2022-07-18T14:12:56;32.70;73.50
14257;DHT22;7212;53.254;6.456;2022-07-18T14:15:22;32.60;74.00
14257;DHT22;7212;53.254;6.456;2022-07-18T14:17:47;32.60;74.30
14257;DHT22;7212;53.254;6.456;2022-07-18T14:20:14;32.50;75.10
14257;DHT22;7212;53.254;6.456;2022-07-18T14:22:41;32.50;75.50
14257;DHT22;7212;53.254;6.456;2022-07-18T14:25:08;32.50;75.80
14257;DHT22;7212;53.254;6.456;2022-07-18T14:27:34;32.60;76.00
14257;DHT22;7212;53.254;6.456;2022-07-18T14:30:00;32.70;76.00
14257;DHT22;7212;53.254;6.456;2022-07-18T14:32:27;32.80;76.00
14257;DHT22;7212;53.254;6.456;2022-07-18T14:34:53;32.80;75.70
14257;DHT22;7212;53.254;6.456;2022-07-18T14:37:18;32.90;76.20
14257;DHT22;7212;53.254;6.456;2022-07-18T14:39:44;33.00;75.10
14257;DHT22;7212;53.254;6.456;2022-07-18T14:42:10;33.10;76.60
14257;DHT22;7212;53.254;6.456;2022-07-18T14:44:36;33.20;74.00
14257;DHT22;7212;53.254;6.456;2022-07-18T14:47:02;33.30;75.30
14257;DHT22;7212;53.254;6.456;2022-07-18T14:49:33;33.40;75.00
14257;DHT22;7212;53.254;6.456;2022-07-18T14:51:59;33.60;74.80
14257;DHT22;7212;53.254;6.456;2022-07-18T14:54:28;33.60;75.70
14257;DHT22;7212;53.254;6.456;2022-07-18T14:56:54;33.70;73.90
14257;DHT22;7212;53.254;6.456;2022-07-18T14:59:20;33.80;73.30
14257;DHT22;7212;53.254;6.456;2022-07-18T15:01:47;33.80;73.50
14257;DHT22;7212;53.254;6.456;2022-07-18T15:04:13;33.90;72.90
14257;DHT22;7212;53.254;6.456;2022-07-18T15:06:38;33.90;73.10
14257;DHT22;7212;53.254;6.456;2022-07-18T15:09:06;33.80;73.70
14257;DHT22;7212;53.254;6.456;2022-07-18T15:11:32;33.80;72.70
14257;DHT22;7212;53.254;6.456;2022-07-18T15:13:58;33.90;73.40
14257;DHT22;7212;53.254;6.456;2022-07-18T15:16:24;34.00;72.70
14257;DHT22;7212;53.254;6.456;2022-07-18T15:18:49;34.20;72.00
14257;DHT22;7212;53.254;6.456;2022-07-18T15:21:15;34.40;72.90
14257;DHT22;7212;53.254;6.456;2022-07-18T15:23:41;34.50;72.70
14257;DHT22;7212;53.254;6.456;2022-07-18T15:26:07;34.60;73.50
14257;DHT22;7212;53.254;6.456;2022-07-18T15:28:33;34.60;72.50
14257;DHT22;7212;53.254;6.456;2022-07-18T15:30:59;34.60;72.20
14257;DHT22;7212;53.254;6.456;2022-07-18T15:33:30;34.70;73.60
14257;DHT22;7212;53.254;6.456;2022-07-18T15:35:56;34.70;73.10
14257;DHT22;7212;53.254;6.456;2022-07-18T15:38:21;35.00;72.70
14257;DHT22;7212;53.254;6.456;2022-07-18T15:40:48;35.10;71.80
14257;DHT22;7212;53.254;6.456;2022-07-18T15:43:14;35.20;70.70
14257;DHT22;7212;53.254;6.456;2022-07-18T15:45:40;35.30;71.40
14257;DHT22;7212;53.254;6.456;2022-07-18T15:48:05;35.30;71.70
14257;DHT22;7212;53.254;6.456;2022-07-18T15:50:31;35.40;70.80
14257;DHT22;7212;53.254;6.456;2022-07-18T15:52:57;35.30;70.40
14257;DHT22;7212;53.254;6.456;2022-07-18T15:55:23;35.30;68.80
14257;DHT22;7212;53.254;6.456;2022-07-18T15:57:48;35.40;69.50
14257;DHT22;7212;53.254;6.456;2022-07-18T16:00:14;35.40;70.10
14257;DHT22;7212;53.254;6.456;2022-07-18T16:02:40;35.50;67.60
14257;DHT22;7212;53.254;6.456;2022-07-18T16:05:06;35.60;67.40
14257;DHT22;7212;53.254;6.456;2022-07-18T16:07:32;35.60;66.50
14257;DHT22;7212;53.254;6.456;2022-07-18T16:09:57;35.60;65.40
14257;DHT22;7212;53.254;6.456;2022-07-18T16:12:23;35.60;64.90
14257;DHT22;7212;53.254;6.456;2022-07-18T16:14:49;35.50;63.90
14257;DHT22;7212;53.254;6.456;2022-07-18T16:17:14;35.50;64.70
14257;DHT22;7212;53.254;6.456;2022-07-18T16:19:40;35.50;64.50
14257;DHT22;7212;53.254;6.456;2022-07-18T16:22:06;35.50;64.50
14257;DHT22;7212;53.254;6.456;2022-07-18T16:24:31;35.50;65.20
14257;DHT22;7212;53.254;6.456;2022-07-18T16:26:57;35.60;65.20
14257;DHT22;7212;53.254;6.456;2022-07-18T16:29:22;35.60;65.70
14257;DHT22;7212;53.254;6.456;2022-07-18T16:31:48;35.60;65.00
14257;DHT22;7212;53.254;6.456;2022-07-18T16:34:14;35.60;64.70